Malaga, Spain

8:16 AM CET on February 11, 2016 (GMT +0100)
IALALHAU2 | | Change Station
CLOSE
Current Station
Personal Weather Station
Location: Alhaurin De La Torre, Malaga
Elevation: 360 ft
Nearby Weather Stations

Elev 360 ft 36.66 °N, 4.55 °W | Updated 5 minutes ago

Light Rain
Light Rain
60.3 °F
Feels Like 60.3 °F
N
0.0
Wind Variable Wind from North
Gusts 0.0 mph

Today
High -- | Low -- °F
--% Chance of Precip.
Yesterday
High -- | Low -- °F
Precip. -- in
Pressure 30.06 in
Visibility 6.2 miles
Clouds Few 3000 ft
Scattered Clouds 5000 ft
Dew Point 55 °F
Humidity 86%
Rainfall Not available.
Snow Depth Not available.
8:11 AM 6:53 PM
Waxing Crescent, 10% visible
METAR LEMG 110700Z VRB01KT 9999 -RA FEW030 SCT050 15/14 Q1018 NOSIG
Pressure 30.06 in
Visibility 6.2 miles
Clouds Few 3000 ft
Scattered Clouds 5000 ft
Dew Point 55 °F
Humidity 86%
Rainfall Not available.
Snow Depth Not available.
8:11 AM 6:53 PM
Waxing Crescent, 10% visible
METAR LEMG 110700Z VRB01KT 9999 -RA FEW030 SCT050 15/14 Q1018 NOSIG

10-Day Weather Forecast

Almanac

Astronomy

Feb. 11, 2016 Rise Set
Actual Time
Civil Twilight
Nautical Twilight
Astronomical Twilight
Moon
Length of Visible Light
Length of Day
Tomorrow will be .
, % of the Moon is Illuminated

Today's Extremes

Country Highs Country Lows

Community

WunderPhotos

Upload Photos

1,892,030 photos uploaded!

WunderBlog® & News

Nearby

Air Quality

  Air Quality AQ Index Pollutant
Not available.

Snow Depth

Station Depth Elevation

Earthquake Activity

City Distance Mag. Time & Date
Minimum magnitude displayed is 2.5.

Coastal Water Temperatures

Place Temperature

Stations

Nearby Weather Stations

Station Location Temp. Windchill Dew Point Humidity Wind Precip. Elev Updated Type